sensor_id;sensor_type;location;lat;lon;timestamp;pressure;altitude;pressure_sealevel;temperature;humidity
63654;BME280;49809;47.418;19.080;2023-01-26T00:00:12;101328.81;;;1.65;100.00
63654;BME280;49809;47.418;19.080;2023-01-26T00:04:11;101330.84;;;1.47;100.00
63654;BME280;49809;47.418;19.080;2023-01-26T00:07:51;101318.06;;;1.60;100.00
63654;BME280;49809;47.418;19.080;2023-01-26T00:11:27;101311.25;;;1.59;100.00
63654;BME280;49809;47.418;19.080;2023-01-26T00:14:59;101303.41;;;1.51;100.00
63654;BME280;49809;47.418;19.080;2023-01-26T00:18:25;101307.16;;;1.56;100.00
63654;BME280;49809;47.418;19.080;2023-01-26T00:22:07;101305.69;;;1.62;100.00
63654;BME280;49809;47.418;19.080;2023-01-26T00:25:43;101295.59;;;1.59;100.00
63654;BME280;49809;47.418;19.080;2023-01-26T00:28:52;101293.31;;;1.56;100.00
63654;BME280;49809;47.418;19.080;2023-01-26T00:32:28;101295.44;;;1.52;100.00
63654;BME280;49809;47.418;19.080;2023-01-26T00:35:59;101296.91;;;1.55;100.00
63654;BME280;49809;47.418;19.080;2023-01-26T00:39:18;101290.69;;;1.56;100.00
63654;BME280;49809;47.418;19.080;2023-01-26T00:42:53;101303.38;;;1.67;100.00
63654;BME280;49809;47.418;19.080;2023-01-26T00:46:20;101288.94;;;1.48;100.00
63654;BME280;49809;47.418;19.080;2023-01-26T00:49:57;101292.66;;;1.54;100.00
63654;BME280;49809;47.418;19.080;2023-01-26T00:53:31;101286.81;;;1.44;100.00
63654;BME280;49809;47.418;19.080;2023-01-26T00:57:01;101284.84;;;1.46;100.00
63654;BME280;49809;47.418;19.080;2023-01-26T01:00:20;101278.53;;;1.40;100.00
63654;BME280;49809;47.418;19.080;2023-01-26T01:03:57;101278.69;;;1.39;100.00
63654;BME280;49809;47.418;19.080;2023-01-26T01:07:31;101276.03;;;1.47;100.00
63654;BME280;49809;47.418;19.080;2023-01-26T01:10:46;101279.97;;;1.43;100.00
63654;BME280;49809;47.418;19.080;2023-01-26T01:14:16;101278.03;;;1.45;100.00
63654;BME280;49809;47.418;19.080;2023-01-26T01:17:40;101276.72;;;1.41;100.00
63654;BME280;49809;47.418;19.080;2023-01-26T01:21:13;101271.19;;;1.36;100.00
63654;BME280;49809;47.418;19.080;2023-01-26T01:24:48;101275.09;;;1.40;100.00
63654;BME280;49809;47.418;19.080;2023-01-26T01:28:24;101263.66;;;1.41;100.00
63654;BME280;49809;47.418;19.080;2023-01-26T01:31:58;101260.75;;;1.44;100.00
63654;BME280;49809;47.418;19.080;2023-01-26T01:35:26;101260.37;;;1.47;100.00
63654;BME280;49809;47.418;19.080;2023-01-26T01:39:00;101253.87;;;1.43;100.00
63654;BME280;49809;47.418;19.080;2023-01-26T01:42:44;101255.53;;;1.44;100.00
63654;BME280;49809;47.418;19.080;2023-01-26T01:46:10;101255.22;;;1.39;100.00
63654;BME280;49809;47.418;19.080;2023-01-26T01:49:44;101255.78;;;1.57;100.00
63654;BME280;49809;47.418;19.080;2023-01-26T01:53:19;101239.41;;;1.32;100.00
63654;BME280;49809;47.418;19.080;2023-01-26T01:56:55;101248.41;;;1.29;100.00
63654;BME280;49809;47.418;19.080;2023-01-26T02:00:35;101244.94;;;1.37;100.00
63654;BME280;49809;47.418;19.080;2023-01-26T02:04:10;101235.47;;;1.44;100.00
63654;BME280;49809;47.418;19.080;2023-01-26T02:07:44;101231.41;;;1.34;100.00
63654;BME280;49809;47.418;19.080;2023-01-26T02:14:51;101222.59;;;1.43;100.00
63654;BME280;49809;47.418;19.080;2023-01-26T02:18:18;101218.66;;;1.47;100.00
63654;BME280;49809;47.418;19.080;2023-01-26T02:21:55;101218.31;;;1.50;100.00
63654;BME280;49809;47.418;19.080;2023-01-26T02:25:36;101213.63;;;1.37;100.00
63654;BME280;49809;47.418;19.080;2023-01-26T02:28:57;101208.88;;;1.41;100.00
63654;BME280;49809;47.418;19.080;2023-01-26T02:32:21;101204.97;;;1.45;100.00
63654;BME280;49809;47.418;19.080;2023-01-26T02:35:56;101200.75;;;1.36;100.00
63654;BME280;49809;47.418;19.080;2023-01-26T02:42:57;101193.28;;;1.33;100.00
63654;BME280;49809;47.418;19.080;2023-01-26T02:46:31;101177.25;;;1.44;100.00
63654;BME280;49809;47.418;19.080;2023-01-26T02:50:08;101177.62;;;1.33;100.00
63654;BME280;49809;47.418;19.080;2023-01-26T02:53:40;101169.94;;;1.39;100.00
63654;BME280;49809;47.418;19.080;2023-01-26T02:56:56;101170.25;;;1.36;100.00
63654;BME280;49809;47.418;19.080;2023-01-26T03:00:35;101166.50;;;1.39;100.00
63654;BME280;49809;47.418;19.080;2023-01-26T03:03:57;101153.16;;;1.34;100.00
63654;BME280;49809;47.418;19.080;2023-01-26T03:07:33;101156.09;;;1.39;100.00
63654;BME280;49809;47.418;19.080;2023-01-26T03:11:10;101152.31;;;1.41;100.00
63654;BME280;49809;47.418;19.080;2023-01-26T03:14:39;101149.88;;;1.40;100.00
63654;BME280;49809;47.418;19.080;2023-01-26T03:18:24;101150.22;;;1.37;100.00
63654;BME280;49809;47.418;19.080;2023-01-26T03:22:17;101147.44;;;1.38;100.00
63654;BME280;49809;47.418;19.080;2023-01-26T03:26:04;101138.84;;;1.29;100.00
63654;BME280;49809;47.418;19.080;2023-01-26T03:29:27;101139.31;;;1.33;100.00
63654;BME280;49809;47.418;19.080;2023-01-26T03:32:33;101128.41;;;1.29;100.00
63654;BME280;49809;47.418;19.080;2023-01-26T03:35:37;101121.87;;;1.34;100.00
63654;BME280;49809;47.418;19.080;2023-01-26T03:38:41;101115.37;;;1.29;100.00
63654;BME280;49809;47.418;19.080;2023-01-26T03:41:47;101120.28;;;1.24;100.00
63654;BME280;49809;47.418;19.080;2023-01-26T03:45:12;101119.47;;;1.24;100.00
63654;BME280;49809;47.418;19.080;2023-01-26T03:48:43;101119.78;;;1.29;100.00
63654;BME280;49809;47.418;19.080;2023-01-26T03:52:07;101110.97;;;1.30;100.00
63654;BME280;49809;47.418;19.080;2023-01-26T03:55:29;101108.22;;;1.23;100.00
63654;BME280;49809;47.418;19.080;2023-01-26T03:58:54;101114.78;;;1.19;100.00
63654;BME280;49809;47.418;19.080;2023-01-26T04:01:58;101102.50;;;1.28;100.00
63654;BME280;49809;47.418;19.080;2023-01-26T04:05:22;101102.66;;;1.26;100.00
63654;BME280;49809;47.418;19.080;2023-01-26T04:08:46;101103.06;;;1.15;100.00
63654;BME280;49809;47.418;19.080;2023-01-26T04:11:51;101102.25;;;1.07;100.00
63654;BME280;49809;47.418;19.080;2023-01-26T04:14:54;101098.69;;;1.08;100.00
63654;BME280;49809;47.418;19.080;2023-01-26T04:18:17;101098.81;;;1.14;100.00
63654;BME280;49809;47.418;19.080;2023-01-26T04:21:39;101103.06;;;1.07;100.00
63654;BME280;49809;47.418;19.080;2023-01-26T04:24:45;101092.62;;;1.15;100.00
63654;BME280;49809;47.418;19.080;2023-01-26T04:27:48;101086.00;;;1.05;100.00
63654;BME280;49809;47.418;19.080;2023-01-26T04:30:53;101083.38;;;1.05;100.00
63654;BME280;49809;47.418;19.080;2023-01-26T04:33:58;101082.56;;;1.04;100.00
63654;BME280;49809;47.418;19.080;2023-01-26T04:37:02;101086.81;;;1.05;100.00
63654;BME280;49809;47.418;19.080;2023-01-26T04:40:11;101083.38;;;1.05;100.00
63654;BME280;49809;47.418;19.080;2023-01-26T04:43:15;101083.84;;;1.08;100.00
63654;BME280;49809;47.418;19.080;2023-01-26T04:46:23;101084.06;;;1.29;100.00
63654;BME280;49809;47.418;19.080;2023-01-26T04:49:32;101080.09;;;1.11;100.00
63654;BME280;49809;47.418;19.080;2023-01-26T04:52:50;101083.22;;;1.06;100.00
63654;BME280;49809;47.418;19.080;2023-01-26T04:56:35;101076.69;;;1.02;100.00
63654;BME280;49809;47.418;19.080;2023-01-26T04:59:47;101074.22;;;1.09;100.00
63654;BME280;49809;47.418;19.080;2023-01-26T05:02:54;101074.09;;;1.02;100.00
63654;BME280;49809;47.418;19.080;2023-01-26T05:05:57;101077.31;;;1.12;100.00
63654;BME280;49809;47.418;19.080;2023-01-26T05:09:01;101080.63;;;1.06;100.00
63654;BME280;49809;47.418;19.080;2023-01-26T05:12:09;101079.97;;;1.04;100.00
63654;BME280;49809;47.418;19.080;2023-01-26T05:15:35;101073.78;;;1.05;100.00
63654;BME280;49809;47.418;19.080;2023-01-26T05:18:40;101069.84;;;1.09;100.00
63654;BME280;49809;47.418;19.080;2023-01-26T05:21:49;101070.34;;;1.05;100.00
63654;BME280;49809;47.418;19.080;2023-01-26T05:24:55;101078.78;;;1.07;100.00
63654;BME280;49809;47.418;19.080;2023-01-26T05:28:00;101078.25;;;1.19;99.63
63654;BME280;49809;47.418;19.080;2023-01-26T05:31:11;101076.94;;;1.23;98.95
63654;BME280;49809;47.418;19.080;2023-01-26T05:34:40;101079.53;;;1.23;99.31
63654;BME280;49809;47.418;19.080;2023-01-26T05:37:45;101086.25;;;1.18;100.00
63654;BME280;49809;47.418;19.080;2023-01-26T05:40:51;101080.09;;;1.11;99.90
63654;BME280;49809;47.418;19.080;2023-01-26T05:43:55;101090.03;;;1.07;100.00
63654;BME280;49809;47.418;19.080;2023-01-26T05:47:04;101090.22;;;1.06;100.00
63654;BME280;49809;47.418;19.080;2023-01-26T05:50:10;101094.13;;;1.02;100.00
63654;BME280;49809;47.418;19.080;2023-01-26T05:53:44;101087.94;;;1.11;100.00
63654;BME280;49809;47.418;19.080;2023-01-26T05:56:48;101082.56;;;1.04;100.00
63654;BME280;49809;47.418;19.080;2023-01-26T06:00:13;101090.34;;;1.12;100.00
63654;BME280;49809;47.418;19.080;2023-01-26T06:03:23;101085.34;;;1.03;100.00
63654;BME280;49809;47.418;19.080;2023-01-26T06:06:30;101090.03;;;1.07;100.00
63654;BME280;49809;47.418;19.080;2023-01-26T06:09:36;101086.50;;;1.00;100.00
63654;BME280;49809;47.418;19.080;2023-01-26T06:12:41;101078.41;;;0.87;100.00
63654;BME280;49809;47.418;19.080;2023-01-26T06:15:47;101081.16;;;0.94;99.88
63654;BME280;49809;47.418;19.080;2023-01-26T06:18:51;101078.38;;;0.95;99.35
63654;BME280;49809;47.418;19.080;2023-01-26T06:21:55;101078.38;;;0.95;99.13
63654;BME280;49809;47.418;19.080;2023-01-26T06:24:57;101083.25;;;0.98;99.38
63654;BME280;49809;47.418;19.080;2023-01-26T06:28:05;101084.72;;;0.93;98.95
63654;BME280;49809;47.418;19.080;2023-01-26T06:31:12;101083.25;;;0.98;99.09
63654;BME280;49809;47.418;19.080;2023-01-26T06:34:40;101083.91;;;0.92;99.20
63654;BME280;49809;47.418;19.080;2023-01-26T06:37:43;101081.03;;;0.87;99.03
63654;BME280;49809;47.418;19.080;2023-01-26T06:40:47;101076.75;;;0.94;98.46
63654;BME280;49809;47.418;19.080;2023-01-26T06:43:51;101072.03;;;0.90;98.62
63654;BME280;49809;47.418;19.080;2023-01-26T06:46:58;101078.69;;;0.92;98.91
63654;BME280;49809;47.418;19.080;2023-01-26T06:50:02;101069.22;;;0.99;98.08
63654;BME280;49809;47.418;19.080;2023-01-26T06:56:36;101065.34;;;0.95;98.24
63654;BME280;49809;47.418;19.080;2023-01-26T06:59:44;101068.56;;;1.05;98.28
63654;BME280;49809;47.418;19.080;2023-01-26T07:02:54;101069.28;;;0.91;97.81
63654;BME280;49809;47.418;19.080;2023-01-26T07:05:58;101067.94;;;0.95;97.80
63654;BME280;49809;47.418;19.080;2023-01-26T07:09:03;101063.00;;;1.08;97.15
63654;BME280;49809;47.418;19.080;2023-01-26T07:12:07;101065.28;;;1.03;96.61
63654;BME280;49809;47.418;19.080;2023-01-26T07:15:14;101064.75;;;1.16;96.36
63654;BME280;49809;47.418;19.080;2023-01-26T07:18:38;101060.22;;;1.10;96.23
63654;BME280;49809;47.418;19.080;2023-01-26T07:22:05;101069.03;;;1.09;95.90
63654;BME280;49809;47.418;19.080;2023-01-26T07:25:49;101063.59;;;1.18;94.55
63654;BME280;49809;47.418;19.080;2023-01-26T07:28:54;101056.50;;;1.04;94.96
63654;BME280;49809;47.418;19.080;2023-01-26T07:31:58;101055.13;;;1.16;95.34
63654;BME280;49809;47.418;19.080;2023-01-26T07:35:05;101055.81;;;1.10;94.96
63654;BME280;49809;47.418;19.080;2023-01-26T07:38:10;101056.06;;;1.23;94.78
63654;BME280;49809;47.418;19.080;2023-01-26T07:45:38;101046.97;;;1.19;94.04
63654;BME280;49809;47.418;19.080;2023-01-26T07:49:01;101053.31;;;1.48;93.82
63654;BME280;49809;47.418;19.080;2023-01-26T07:52:10;101049.12;;;1.39;93.68
63654;BME280;49809;47.418;19.080;2023-01-26T07:55:16;101043.91;;;1.39;93.94
63654;BME280;49809;47.418;19.080;2023-01-26T07:58:19;101044.81;;;1.46;92.93
63654;BME280;49809;47.418;19.080;2023-01-26T08:01:52;101042.50;;;1.51;92.75
63654;BME280;49809;47.418;19.080;2023-01-26T08:04:57;101050.87;;;1.46;93.67
63654;BME280;49809;47.418;19.080;2023-01-26T08:08:16;101049.12;;;1.39;94.15
63654;BME280;49809;47.418;19.080;2023-01-26T08:11:21;101046.06;;;1.58;94.24
63654;BME280;49809;47.418;19.080;2023-01-26T08:15:08;101045.59;;;1.54;93.39
63654;BME280;49809;47.418;19.080;2023-01-26T08:18:17;101048.84;;;1.56;93.35
63654;BME280;49809;47.418;19.080;2023-01-26T08:21:26;101045.66;;;1.46;93.84
63654;BME280;49809;47.418;19.080;2023-01-26T08:24:31;101043.31;;;1.51;93.84
63654;BME280;49809;47.418;19.080;2023-01-26T08:27:34;101043.56;;;1.64;93.53
63654;BME280;49809;47.418;19.080;2023-01-26T08:31:19;101040.91;;;1.72;92.23
63654;BME280;49809;47.418;19.080;2023-01-26T08:34:43;101040.78;;;1.66;91.82
63654;BME280;49809;47.418;19.080;2023-01-26T08:37:51;101044.28;;;1.58;91.44
63654;BME280;49809;47.418;19.080;2023-01-26T08:41:02;101043.37;;;1.66;91.81
63654;BME280;49809;47.418;19.080;2023-01-26T08:44:27;101032.91;;;1.74;90.59
63654;BME280;49809;47.418;19.080;2023-01-26T08:47:32;101036.97;;;1.54;91.87
63654;BME280;49809;47.418;19.080;2023-01-26T08:59:10;101036.78;;;1.78;91.37
63654;BME280;49809;47.418;19.080;2023-01-26T09:02:46;101030.09;;;1.98;90.70
63654;BME280;49809;47.418;19.080;2023-01-26T09:05:51;101030.09;;;1.98;89.67
63654;BME280;49809;47.418;19.080;2023-01-26T09:08:55;101038.38;;;2.16;89.43
63654;BME280;49809;47.418;19.080;2023-01-26T09:11:59;101034.84;;;2.09;89.45
63654;BME280;49809;47.418;19.080;2023-01-26T09:15:05;101037.72;;;2.00;89.25
63654;BME280;49809;47.418;19.080;2023-01-26T09:18:10;101034.50;;;1.98;88.67
63654;BME280;49809;47.418;19.080;2023-01-26T09:21:16;101032.94;;;1.89;88.51
63654;BME280;49809;47.418;19.080;2023-01-26T09:24:22;101041.88;;;2.09;88.20
63654;BME280;49809;47.418;19.080;2023-01-26T09:27:58;101035.38;;;2.05;88.42
63654;BME280;49809;47.418;19.080;2023-01-26T09:31:04;101034.78;;;2.17;88.15
63654;BME280;49809;47.418;19.080;2023-01-26T09:34:31;101027.75;;;2.33;87.34
63654;BME280;49809;47.418;19.080;2023-01-26T09:37:39;101031.09;;;2.27;87.27
63654;BME280;49809;47.418;19.080;2023-01-26T09:44:51;101021.09;;;2.15;86.79
63654;BME280;49809;47.418;19.080;2023-01-26T09:51:20;101019.31;;;2.45;86.12
63654;BME280;49809;47.418;19.080;2023-01-26T09:54:57;101019.41;;;2.23;86.70
63654;BME280;49809;47.418;19.080;2023-01-26T09:58:04;101016.69;;;2.31;87.50
63654;BME280;49809;47.418;19.080;2023-01-26T10:01:53;101011.56;;;2.23;86.79
63654;BME280;49809;47.418;19.080;2023-01-26T10:05:04;101002.38;;;2.41;87.15
63654;BME280;49809;47.418;19.080;2023-01-26T10:08:15;100998.47;;;2.52;86.49
63654;BME280;49809;47.418;19.080;2023-01-26T10:11:53;100990.63;;;2.37;87.07
63654;BME280;49809;47.418;19.080;2023-01-26T10:15:02;100989.03;;;2.51;87.40
63654;BME280;49809;47.418;19.080;2023-01-26T10:18:16;100985.94;;;2.62;87.42
63654;BME280;49809;47.418;19.080;2023-01-26T10:21:29;100982.53;;;2.97;86.39
63654;BME280;49809;47.418;19.080;2023-01-26T10:24:35;100979.56;;;2.86;86.64
63654;BME280;49809;47.418;19.080;2023-01-26T10:27:42;100968.28;;;2.64;88.07
63654;BME280;49809;47.418;19.080;2023-01-26T10:30:50;100969.44;;;2.61;88.28
63654;BME280;49809;47.418;19.080;2023-01-26T10:34:04;100956.56;;;2.60;88.87
63654;BME280;49809;47.418;19.080;2023-01-26T10:37:33;100956.78;;;2.44;89.44
63654;BME280;49809;47.418;19.080;2023-01-26T10:41:05;100947.00;;;2.52;89.50
63654;BME280;49809;47.418;19.080;2023-01-26T10:44:53;100947.56;;;2.48;89.83
63654;BME280;49809;47.418;19.080;2023-01-26T10:51:15;100943.09;;;2.42;89.60
63654;BME280;49809;47.418;19.080;2023-01-26T10:54:24;100942.78;;;2.66;88.99
63654;BME280;49809;47.418;19.080;2023-01-26T10:57:36;100936.06;;;2.78;88.49
63654;BME280;49809;47.418;19.080;2023-01-26T11:01:15;100937.06;;;2.77;88.19
63654;BME280;49809;47.418;19.080;2023-01-26T11:04:24;100935.63;;;2.75;88.63
63654;BME280;49809;47.418;19.080;2023-01-26T11:07:32;100928.84;;;2.30;90.85
63654;BME280;49809;47.418;19.080;2023-01-26T11:10:38;100925.69;;;2.49;91.08
63654;BME280;49809;47.418;19.080;2023-01-26T11:13:45;100912.22;;;2.88;88.96
63654;BME280;49809;47.418;19.080;2023-01-26T11:17:04;100917.94;;;2.77;89.27
63654;BME280;49809;47.418;19.080;2023-01-26T11:30:44;100898.31;;;2.30;91.48
63654;BME280;49809;47.418;19.080;2023-01-26T11:34:30;100901.22;;;2.21;91.43
63654;BME280;49809;47.418;19.080;2023-01-26T11:38:21;100898.56;;;2.50;90.84
63654;BME280;49809;47.418;19.080;2023-01-26T11:42:23;100898.09;;;2.61;89.74
63654;BME280;49809;47.418;19.080;2023-01-26T11:49:29;100889.13;;;2.34;91.42
63654;BME280;49809;47.418;19.080;2023-01-26T12:01:39;100861.63;;;2.38;91.02
63654;BME280;49809;47.418;19.080;2023-01-26T12:05:26;100844.94;;;2.54;90.65
63654;BME280;49809;47.418;19.080;2023-01-26T12:12:41;100838.94;;;2.81;87.75
63654;BME280;49809;47.418;19.080;2023-01-26T12:16:22;100832.94;;;2.81;87.16
63654;BME280;49809;47.418;19.080;2023-01-26T12:20:06;100829.38;;;2.67;88.48
63654;BME280;49809;47.418;19.080;2023-01-26T12:24:08;100831.56;;;2.28;89.15
63654;BME280;49809;47.418;19.080;2023-01-26T12:27:52;100827.66;;;2.38;89.84
63654;BME280;49809;47.418;19.080;2023-01-26T12:34:51;100832.88;;;2.74;88.69
63654;BME280;49809;47.418;19.080;2023-01-26T12:45:50;100817.41;;;2.58;88.80
63654;BME280;49809;47.418;19.080;2023-01-26T12:53:17;100820.66;;;2.60;89.08
63654;BME280;49809;47.418;19.080;2023-01-26T12:57:00;100805.53;;;2.77;87.52
63654;BME280;49809;47.418;19.080;2023-01-26T13:00:48;100804.84;;;2.68;87.55
63654;BME280;49809;47.418;19.080;2023-01-26T13:04:26;100807.78;;;2.58;88.44
63654;BME280;49809;47.418;19.080;2023-01-26T13:12:49;100800.63;;;2.67;88.64
63654;BME280;49809;47.418;19.080;2023-01-26T13:19:58;100791.78;;;2.68;88.20
63654;BME280;49809;47.418;19.080;2023-01-26T13:23:47;100792.28;;;2.57;88.63
63654;BME280;49809;47.418;19.080;2023-01-26T13:27:29;100795.28;;;2.54;88.69
63654;BME280;49809;47.418;19.080;2023-01-26T13:31:27;100794.16;;;2.63;88.60
63654;BME280;49809;47.418;19.080;2023-01-26T13:35:02;100793.97;;;2.65;88.83
63654;BME280;49809;47.418;19.080;2023-01-26T13:38:57;100791.72;;;2.61;89.42
63654;BME280;49809;47.418;19.080;2023-01-26T13:42:39;100792.03;;;2.52;89.26
63654;BME280;49809;47.418;19.080;2023-01-26T13:46:29;100791.72;;;2.61;90.80
63654;BME280;49809;47.418;19.080;2023-01-26T13:50:32;100794.22;;;2.48;91.84
63654;BME280;49809;47.418;19.080;2023-01-26T13:54:11;100795.06;;;2.34;92.99
63654;BME280;49809;47.418;19.080;2023-01-26T13:57:49;100784.06;;;2.17;93.91
63654;BME280;49809;47.418;19.080;2023-01-26T14:01:33;100790.88;;;2.18;93.36
63654;BME280;49809;47.418;19.080;2023-01-26T14:05:01;100786.56;;;2.26;93.00
63654;BME280;49809;47.418;19.080;2023-01-26T14:08:36;100779.69;;;2.25;92.57
63654;BME280;49809;47.418;19.080;2023-01-26T14:12:21;100788.81;;;2.14;93.36
63654;BME280;49809;47.418;19.080;2023-01-26T14:15:59;100788.91;;;2.21;92.41
63654;BME280;49809;47.418;19.080;2023-01-26T14:19:45;100785.87;;;2.17;93.48
63654;BME280;49809;47.418;19.080;2023-01-26T14:23:16;100789.16;;;2.26;93.31
63654;BME280;49809;47.418;19.080;2023-01-26T14:27:01;100785.22;;;2.15;93.31
63654;BME280;49809;47.418;19.080;2023-01-26T14:30:32;100792.00;;;2.09;93.74
63654;BME280;49809;47.418;19.080;2023-01-26T14:34:21;100787.06;;;2.00;94.74
63654;BME280;49809;47.418;19.080;2023-01-26T14:38:12;100786.50;;;2.04;94.36
63654;BME280;49809;47.418;19.080;2023-01-26T14:41:47;100791.03;;;1.96;94.85
63654;BME280;49809;47.418;19.080;2023-01-26T14:45:30;100784.56;;;1.92;95.25
63654;BME280;49809;47.418;19.080;2023-01-26T14:49:08;100775.19;;;1.97;94.87
63654;BME280;49809;47.418;19.080;2023-01-26T14:52:45;100784.59;;;1.77;94.90
63654;BME280;49809;47.418;19.080;2023-01-26T14:56:30;100777.47;;;1.71;95.21
63654;BME280;49809;47.418;19.080;2023-01-26T15:00:06;100779.81;;;1.66;95.38
63654;BME280;49809;47.418;19.080;2023-01-26T15:03:42;100766.50;;;1.61;95.78
63654;BME280;49809;47.418;19.080;2023-01-26T15:11:11;100772.97;;;1.50;96.52
63654;BME280;49809;47.418;19.080;2023-01-26T15:15:11;100776.22;;;1.38;97.74
63654;BME280;49809;47.418;19.080;2023-01-26T15:18:41;100779.37;;;1.48;98.20
63654;BME280;49809;47.418;19.080;2023-01-26T15:22:21;100778.66;;;1.39;98.34
63654;BME280;49809;47.418;19.080;2023-01-26T15:26:04;100784.44;;;1.35;99.39
63654;BME280;49809;47.418;19.080;2023-01-26T15:29:32;100788.72;;;1.27;100.00
63654;BME280;49809;47.418;19.080;2023-01-26T15:33:43;100782.97;;;1.32;100.00
63654;BME280;49809;47.418;19.080;2023-01-26T15:37:31;100783.41;;;1.36;99.53
63654;BME280;49809;47.418;19.080;2023-01-26T15:41:02;100775.84;;;1.26;100.00
63654;BME280;49809;47.418;19.080;2023-01-26T15:44:36;100771.81;;;1.23;100.00
63654;BME280;49809;47.418;19.080;2023-01-26T15:48:04;100776.75;;;1.18;100.00
63654;BME280;49809;47.418;19.080;2023-01-26T15:51:39;100770.19;;;1.22;99.92
63654;BME280;49809;47.418;19.080;2023-01-26T15:55:19;100780.00;;;1.20;99.91
63654;BME280;49809;47.418;19.080;2023-01-26T15:58:57;100781.34;;;1.16;99.68
63654;BME280;49809;47.418;19.080;2023-01-26T16:02:26;100779.37;;;1.18;99.29
63654;BME280;49809;47.418;19.080;2023-01-26T16:05:53;100782.16;;;1.17;97.93
63654;BME280;49809;47.418;19.080;2023-01-26T16:09:34;100777.19;;;1.22;97.52
63654;BME280;49809;47.418;19.080;2023-01-26T16:13:13;100778.22;;;1.21;95.75
63654;BME280;49809;47.418;19.080;2023-01-26T16:16:43;100782.16;;;1.17;95.60
63654;BME280;49809;47.418;19.080;2023-01-26T16:20:14;100784.94;;;1.15;93.92
63654;BME280;49809;47.418;19.080;2023-01-26T16:23:48;100784.84;;;1.23;94.29
63654;BME280;49809;47.418;19.080;2023-01-26T16:27:17;100784.03;;;1.23;91.88
63654;BME280;49809;47.418;19.080;2023-01-26T16:30:48;100780.72;;;1.14;90.95
63654;BME280;49809;47.418;19.080;2023-01-26T16:34:14;100780.00;;;1.20;89.79
63654;BME280;49809;47.418;19.080;2023-01-26T16:37:49;100778.22;;;1.21;88.21
63654;BME280;49809;47.418;19.080;2023-01-26T16:41:26;100775.87;;;1.11;87.00
63654;BME280;49809;47.418;19.080;2023-01-26T16:45:04;100770.53;;;1.05;86.81
63654;BME280;49809;47.418;19.080;2023-01-26T16:48:40;100775.94;;;1.03;87.79
63654;BME280;49809;47.418;19.080;2023-01-26T16:52:24;100777.28;;;0.99;87.95
63654;BME280;49809;47.418;19.080;2023-01-26T16:56:01;100779.50;;;1.02;87.46
63654;BME280;49809;47.418;19.080;2023-01-26T16:59:38;100767.81;;;0.98;87.38
63654;BME280;49809;47.418;19.080;2023-01-26T17:03:12;100763.97;;;0.94;88.04
63654;BME280;49809;47.418;19.080;2023-01-26T17:06:52;100770.16;;;0.93;85.24
63654;BME280;49809;47.418;19.080;2023-01-26T17:10:29;100762.34;;;0.93;85.49
63654;BME280;49809;47.418;19.080;2023-01-26T17:14:10;100757.41;;;0.98;85.31
63654;BME280;49809;47.418;19.080;2023-01-26T17:17:49;100759.72;;;0.93;85.38
63654;BME280;49809;47.418;19.080;2023-01-26T17:21:28;100766.41;;;0.96;85.17
63654;BME280;49809;47.418;19.080;2023-01-26T17:24:53;100768.72;;;0.91;85.09
63654;BME280;49809;47.418;19.080;2023-01-26T17:28:27;100759.94;;;0.92;85.80
63654;BME280;49809;47.418;19.080;2023-01-26T17:32:00;100761.72;;;0.91;85.32
63654;BME280;49809;47.418;19.080;2023-01-26T17:36:02;100759.44;;;0.88;85.98
63654;BME280;49809;47.418;19.080;2023-01-26T17:39:45;100753.91;;;0.91;85.40
63654;BME280;49809;47.418;19.080;2023-01-26T17:43:21;100750.28;;;0.92;85.96
63654;BME280;49809;47.418;19.080;2023-01-26T17:46:50;100757.47;;;0.90;86.40
63654;BME280;49809;47.418;19.080;2023-01-26T19:39:26;100709.41;;;1.07;82.13
63654;BME280;49809;47.418;19.080;2023-01-26T19:42:34;100714.59;;;0.93;84.03
63654;BME280;49809;47.418;19.080;2023-01-26T19:45:39;100716.16;;;0.87;84.48
63654;BME280;49809;47.418;19.080;2023-01-26T19:48:46;100711.28;;;0.84;85.53
63654;BME280;49809;47.418;19.080;2023-01-26T19:51:54;100709.66;;;0.83;85.30
63654;BME280;49809;47.418;19.080;2023-01-26T19:55:00;100718.13;;;0.85;84.84
63654;BME280;49809;47.418;19.080;2023-01-26T19:58:04;100711.91;;;0.86;83.59
63654;BME280;49809;47.418;19.080;2023-01-26T20:01:10;100710.94;;;0.87;83.82
63654;BME280;49809;47.418;19.080;2023-01-26T20:04:14;100718.37;;;0.90;83.40
63654;BME280;49809;47.418;19.080;2023-01-26T20:07:17;100714.97;;;0.90;84.42
63654;BME280;49809;47.418;19.080;2023-01-26T20:10:23;100713.19;;;0.90;84.38
63654;BME280;49809;47.418;19.080;2023-01-26T20:13:30;100710.94;;;0.87;84.23
63654;BME280;49809;47.418;19.080;2023-01-26T20:16:42;100700.25;;;0.82;84.52
63654;BME280;49809;47.418;19.080;2023-01-26T20:19:47;100703.19;;;0.79;85.50
63654;BME280;49809;47.418;19.080;2023-01-26T20:22:55;100698.88;;;0.86;85.32
63654;BME280;49809;47.418;19.080;2023-01-26T20:26:04;100701.37;;;0.79;85.75
63654;BME280;49809;47.418;19.080;2023-01-26T20:29:12;100702.28;;;0.72;86.21
63654;BME280;49809;47.418;19.080;2023-01-26T20:32:16;100711.09;;;0.71;86.35
63654;BME280;49809;47.418;19.080;2023-01-26T20:35:43;100704.41;;;0.68;86.69
63654;BME280;49809;47.418;19.080;2023-01-26T20:38:49;100702.63;;;0.69;86.67
63654;BME280;49809;47.418;19.080;2023-01-26T20:41:54;100701.00;;;0.68;86.91
63654;BME280;49809;47.418;19.080;2023-01-26T20:45:00;100706.22;;;0.68;87.16
63654;BME280;49809;47.418;19.080;2023-01-26T20:48:06;100702.63;;;0.69;87.34
63654;BME280;49809;47.418;19.080;2023-01-26T20:54:14;100703.28;;;0.71;87.52
63654;BME280;49809;47.418;19.080;2023-01-26T20:57:18;100698.88;;;0.71;87.36